createdAt,value
2023-02-28T00:00:11.298Z,6.00
2023-02-28T00:02:56.696Z,5.70
2023-02-28T00:05:43.283Z,5.60
2023-02-28T00:08:29.563Z,5.70
2023-02-28T00:11:15.832Z,5.50
2023-02-28T00:14:01.968Z,5.60
2023-02-28T00:16:48.107Z,5.80
2023-02-28T00:19:33.848Z,6.00
2023-02-28T00:22:20.775Z,6.00
2023-02-28T00:25:08.067Z,6.00
2023-02-28T00:27:54.169Z,6.00
2023-02-28T00:30:41.018Z,5.90
2023-02-28T00:33:28.054Z,6.00
2023-02-28T00:36:14.332Z,5.90
2023-02-28T00:39:00.460Z,5.90
2023-02-28T00:41:47.225Z,6.00
2023-02-28T00:44:33.393Z,5.90
2023-02-28T00:47:19.145Z,5.70
2023-02-28T00:50:05.440Z,5.60
2023-02-28T00:52:51.611Z,5.40
2023-02-28T00:55:37.348Z,5.30
2023-02-28T00:58:23.787Z,5.50
2023-02-28T01:01:10.694Z,5.60
2023-02-28T01:03:57.283Z,5.60
2023-02-28T01:06:43.379Z,5.70
2023-02-28T01:09:29.664Z,5.60
2023-02-28T01:12:15.016Z,5.40
2023-02-28T01:15:00.570Z,5.60
2023-02-28T01:17:45.931Z,5.50
2023-02-28T01:20:31.548Z,5.50
2023-02-28T01:23:17.339Z,5.40
2023-02-28T01:26:11.306Z,4.90
2023-02-28T01:28:58.805Z,5.50
2023-02-28T01:31:45.002Z,5.50
2023-02-28T01:34:31.037Z,5.80
2023-02-28T01:37:16.930Z,5.30
2023-02-28T01:40:04.006Z,5.10
2023-02-28T01:42:49.755Z,5.20
2023-02-28T01:45:37.207Z,5.30
2023-02-28T01:48:27.478Z,5.40
2023-02-28T01:51:16.310Z,5.60
2023-02-28T01:54:04.964Z,5.90
2023-02-28T01:56:54.146Z,6.00
2023-02-28T01:59:49.945Z,5.60
2023-02-28T02:02:37.669Z,5.30
2023-02-28T02:05:24.322Z,5.50
2023-02-28T02:08:11.507Z,5.90
2023-02-28T02:10:59.110Z,6.00
2023-02-28T02:13:45.047Z,6.20
2023-02-28T02:16:30.903Z,6.00
2023-02-28T02:19:35.214Z,5.90
2023-02-28T02:22:33.858Z,5.70
2023-02-28T02:25:24.195Z,5.80
2023-02-28T02:28:28.441Z,5.70
2023-02-28T02:31:14.085Z,5.90
2023-02-28T02:33:59.752Z,5.80
2023-02-28T02:36:53.177Z,5.80
2023-02-28T02:39:49.263Z,5.90
2023-02-28T02:42:40.477Z,6.10
2023-02-28T02:45:26.192Z,5.80
2023-02-28T02:48:16.295Z,5.70
2023-02-28T02:51:05.154Z,5.50
2023-02-28T02:53:57.891Z,5.50
2023-02-28T02:56:45.723Z,5.70
2023-02-28T02:59:31.683Z,5.50
2023-02-28T03:02:19.025Z,5.40
2023-02-28T03:05:07.852Z,5.20
2023-02-28T03:07:53.756Z,5.20
2023-02-28T03:10:39.566Z,5.20
2023-02-28T03:13:54.775Z,5.10
2023-02-28T03:16:52.604Z,4.90
2023-02-28T03:19:57.111Z,4.90
2023-02-28T03:22:53.714Z,5.00
2023-02-28T03:25:47.054Z,5.00
2023-02-28T03:28:45.851Z,5.10
2023-02-28T03:31:34.521Z,5.00
2023-02-28T03:34:39.242Z,5.00
2023-02-28T03:37:26.543Z,4.90
2023-02-28T03:40:24.312Z,5.00
2023-02-28T03:43:13.924Z,5.00
2023-02-28T03:46:03.510Z,4.90
2023-02-28T03:49:01.948Z,4.90
2023-02-28T03:51:48.198Z,5.00
2023-02-28T03:54:36.004Z,5.10
2023-02-28T03:57:40.398Z,5.20
2023-02-28T04:00:32.089Z,5.50
2023-02-28T04:03:18.055Z,5.50
2023-02-28T04:06:04.944Z,5.50
2023-02-28T04:08:51.234Z,5.50
2023-02-28T04:11:38.001Z,5.60
2023-02-28T04:14:23.806Z,5.70
2023-02-28T04:17:09.129Z,5.70
2023-02-28T04:19:57.653Z,5.50
2023-02-28T04:22:43.328Z,5.00
2023-02-28T04:25:28.844Z,5.00
2023-02-28T04:28:14.645Z,4.80
2023-02-28T04:31:01.780Z,4.90
2023-02-28T04:33:47.215Z,4.90
2023-02-28T04:36:33.090Z,4.70
2023-02-28T04:39:19.428Z,4.80
2023-02-28T04:42:05.014Z,4.80
2023-02-28T04:44:50.608Z,4.80
2023-02-28T04:47:36.981Z,4.40
2023-02-28T04:50:22.710Z,4.50
2023-02-28T04:53:07.897Z,4.70
2023-02-28T04:55:53.575Z,4.40
2023-02-28T04:58:39.426Z,4.90
2023-02-28T05:01:26.081Z,5.00
2023-02-28T05:04:11.716Z,5.40
2023-02-28T05:06:57.485Z,4.90
2023-02-28T05:09:43.093Z,4.30
2023-02-28T05:12:28.602Z,4.10
2023-02-28T05:15:15.129Z,4.10
2023-02-28T05:18:01.311Z,4.10
2023-02-28T05:20:47.493Z,4.00
2023-02-28T05:23:33.424Z,4.20
2023-02-28T05:26:19.400Z,4.20
2023-02-28T05:29:04.718Z,3.70
2023-02-28T05:31:50.584Z,4.30
2023-02-28T05:34:37.151Z,4.40
2023-02-28T05:37:22.843Z,4.70
2023-02-28T05:40:11.427Z,4.80
2023-02-28T05:42:57.285Z,5.10
2023-02-28T05:45:42.949Z,5.40
2023-02-28T05:48:28.432Z,5.70
2023-02-28T05:51:14.185Z,5.90
2023-02-28T05:54:01.438Z,6.20
2023-02-28T05:56:47.226Z,6.30
2023-02-28T05:59:32.913Z,6.20
2023-02-28T06:02:18.950Z,6.30
2023-02-28T06:05:04.670Z,6.20
2023-02-28T06:07:50.235Z,5.80
2023-02-28T06:10:36.495Z,5.60
2023-02-28T06:13:21.865Z,5.50
2023-02-28T06:16:08.335Z,5.90
2023-02-28T06:18:56.658Z,6.00
2023-02-28T06:21:42.231Z,6.00
2023-02-28T06:24:31.409Z,6.10
2023-02-28T06:27:16.918Z,6.10
2023-02-28T06:30:04.712Z,5.90
2023-02-28T06:32:50.784Z,6.10
2023-02-28T06:35:36.513Z,6.30
2023-02-28T06:38:22.309Z,6.30
2023-02-28T06:41:08.310Z,6.40
2023-02-28T06:43:54.324Z,6.40
2023-02-28T06:46:41.524Z,6.40
2023-02-28T06:49:27.160Z,6.40
2023-02-28T06:52:13.082Z,6.30
2023-02-28T06:55:01.871Z,6.30
2023-02-28T06:57:47.166Z,6.40
2023-02-28T07:00:33.211Z,6.30
2023-02-28T07:03:19.550Z,6.50
2023-02-28T07:06:06.073Z,6.10
2023-02-28T07:08:53.694Z,5.80
2023-02-28T07:11:38.938Z,5.70
2023-02-28T07:14:24.701Z,5.50
2023-02-28T07:17:12.598Z,5.50
2023-02-28T07:19:57.904Z,5.50
2023-02-28T07:22:43.666Z,5.60
2023-02-28T07:25:29.584Z,5.60
2023-02-28T07:28:18.662Z,5.80
2023-02-28T07:31:07.243Z,5.60
2023-02-28T07:33:54.929Z,5.50
2023-02-28T07:36:40.609Z,5.40
2023-02-28T07:39:26.178Z,5.50
2023-02-28T07:42:13.224Z,5.40
2023-02-28T07:44:59.967Z,5.60
2023-02-28T07:47:45.767Z,5.60
2023-02-28T07:50:32.283Z,5.60
2023-02-28T07:53:18.079Z,5.50
2023-02-28T07:56:04.829Z,6.00
2023-02-28T07:58:50.817Z,6.00
2023-02-28T08:01:36.850Z,6.00
2023-02-28T08:04:22.778Z,5.90
2023-02-28T08:07:08.915Z,5.70
2023-02-28T08:09:55.245Z,5.80
2023-02-28T08:12:41.119Z,6.20
2023-02-28T08:15:26.838Z,6.30
2023-02-28T08:18:12.573Z,6.40
2023-02-28T08:20:58.573Z,6.60
2023-02-28T08:23:44.358Z,6.80
2023-02-28T08:26:29.928Z,6.80
2023-02-28T08:29:15.724Z,6.80
2023-02-28T08:32:01.570Z,7.10
2023-02-28T08:34:48.237Z,7.10
2023-02-28T08:37:34.408Z,7.50
2023-02-28T08:40:20.336Z,7.40
2023-02-28T08:43:06.400Z,7.60
2023-02-28T08:45:57.693Z,6.60
2023-02-28T08:48:45.215Z,6.40
2023-02-28T08:51:31.249Z,5.20
2023-02-28T08:54:20.764Z,6.40
2023-02-28T08:57:06.437Z,6.50
2023-02-28T08:59:53.607Z,6.60
2023-02-28T09:02:39.621Z,7.30
2023-02-28T09:05:25.570Z,7.30
2023-02-28T09:08:11.284Z,7.10
2023-02-28T09:10:59.048Z,6.90
2023-02-28T09:13:45.409Z,7.10
2023-02-28T09:16:33.407Z,7.60
2023-02-28T09:19:19.913Z,7.60
2023-02-28T09:22:05.900Z,7.20
2023-02-28T09:24:51.656Z,6.80
2023-02-28T09:27:38.556Z,6.80
2023-02-28T09:30:24.389Z,7.40
2023-02-28T09:33:10.976Z,8.20
2023-02-28T09:36:01.290Z,8.50
2023-02-28T09:38:48.842Z,8.10
2023-02-28T09:41:41.125Z,7.80
2023-02-28T09:44:33.480Z,6.10
2023-02-28T09:47:32.133Z,7.20
2023-02-28T09:50:45.374Z,5.80
2023-02-28T09:53:36.485Z,7.80
2023-02-28T09:56:28.157Z,7.50
2023-02-28T09:59:28.230Z,8.70
2023-02-28T10:02:22.720Z,7.40
2023-02-28T10:05:19.445Z,7.90
2023-02-28T10:08:06.307Z,8.30
2023-02-28T10:10:57.651Z,8.50
2023-02-28T10:13:55.872Z,8.90
2023-02-28T10:16:46.230Z,8.60
2023-02-28T10:19:35.132Z,7.30
2023-02-28T10:22:35.185Z,6.60
2023-02-28T10:25:26.520Z,7.60
2023-02-28T10:28:13.873Z,7.90
2023-02-28T10:31:00.150Z,7.00
2023-02-28T10:33:46.409Z,7.00
2023-02-28T10:36:33.563Z,8.30
2023-02-28T10:39:39.338Z,8.30
2023-02-28T10:42:29.482Z,7.50
2023-02-28T10:45:17.425Z,7.20
2023-02-28T10:48:26.957Z,7.80
2023-02-28T10:51:14.664Z,8.20
2023-02-28T10:54:02.116Z,9.00
2023-02-28T10:57:06.209Z,7.60
2023-02-28T10:59:53.798Z,7.80
2023-02-28T11:02:39.498Z,8.30
2023-02-28T11:05:31.634Z,7.00
2023-02-28T11:08:17.749Z,7.50
2023-02-28T11:11:07.676Z,8.00
2023-02-28T11:13:55.053Z,8.70
2023-02-28T11:16:40.419Z,9.20
2023-02-28T11:19:28.475Z,8.80
2023-02-28T11:22:18.521Z,9.00
2023-02-28T11:25:09.939Z,9.10
2023-02-28T11:27:57.625Z,8.50
2023-02-28T11:30:45.614Z,9.30
2023-02-28T11:33:52.550Z,10.00
2023-02-28T11:36:45.622Z,10.50
2023-02-28T11:39:34.846Z,10.20
2023-02-28T11:42:21.157Z,10.90
2023-02-28T11:45:10.545Z,9.70
2023-02-28T11:48:11.432Z,10.30
2023-02-28T11:51:00.635Z,10.70
2023-02-28T11:54:02.898Z,10.40
2023-02-28T11:56:51.221Z,10.30
2023-02-28T11:59:48.001Z,9.40
2023-02-28T12:02:35.267Z,9.90
2023-02-28T12:05:34.414Z,9.30
2023-02-28T12:08:27.952Z,8.50
2023-02-28T12:11:17.001Z,8.10
2023-02-28T12:14:11.220Z,8.80
2023-02-28T12:17:07.994Z,10.00
2023-02-28T12:19:53.950Z,10.20
2023-02-28T12:22:43.068Z,10.80
2023-02-28T12:25:48.619Z,11.10
2023-02-28T12:28:37.478Z,11.30
2023-02-28T12:31:23.842Z,12.00
2023-02-28T12:34:30.055Z,9.70
2023-02-28T12:37:21.463Z,10.00
2023-02-28T12:40:27.833Z,10.50
2023-02-28T12:43:14.882Z,10.30
2023-02-28T12:46:05.564Z,10.30
2023-02-28T12:48:54.585Z,9.60
2023-02-28T12:51:40.902Z,10.00
2023-02-28T12:54:39.348Z,9.90
2023-02-28T12:57:44.320Z,9.50
2023-02-28T13:00:43.873Z,8.60
2023-02-28T13:03:36.773Z,8.90
2023-02-28T13:06:30.004Z,9.10
2023-02-28T13:09:16.719Z,9.00
2023-02-28T13:12:03.027Z,9.10
2023-02-28T13:14:49.850Z,9.10
2023-02-28T13:17:35.631Z,9.30
2023-02-28T13:20:30.024Z,9.40
2023-02-28T13:23:34.461Z,9.00
2023-02-28T13:26:19.729Z,9.20
2023-02-28T13:29:12.034Z,9.30
2023-02-28T13:32:07.236Z,8.40
2023-02-28T13:34:53.136Z,8.40
2023-02-28T13:37:46.534Z,8.90
2023-02-28T13:40:38.979Z,9.00
2023-02-28T13:43:44.840Z,8.90
2023-02-28T13:46:32.009Z,8.90
2023-02-28T13:49:24.084Z,8.50
2023-02-28T13:52:09.977Z,8.90
2023-02-28T13:55:20.761Z,9.40
2023-02-28T13:58:27.046Z,9.80
2023-02-28T14:01:12.571Z,9.80
2023-02-28T14:03:58.092Z,9.50
2023-02-28T14:06:52.253Z,9.40
2023-02-28T14:09:40.950Z,8.80
2023-02-28T14:12:46.003Z,8.50
2023-02-28T14:15:35.245Z,8.20
2023-02-28T14:18:25.834Z,8.40
2023-02-28T14:21:15.624Z,8.70
2023-02-28T14:24:04.226Z,8.40
2023-02-28T14:27:05.532Z,8.40
2023-02-28T14:29:51.141Z,8.60
2023-02-28T14:32:44.969Z,8.80
2023-02-28T14:35:30.986Z,8.60
2023-02-28T14:38:22.549Z,8.90
2023-02-28T14:41:15.812Z,9.40
2023-02-28T14:44:02.185Z,9.50
2023-02-28T14:46:52.238Z,9.00
2023-02-28T14:49:41.051Z,8.40
2023-02-28T14:52:30.826Z,9.00
2023-02-28T14:55:20.749Z,8.80
2023-02-28T14:58:12.526Z,9.20
2023-02-28T15:01:00.172Z,8.80
2023-02-28T15:03:45.907Z,8.90
2023-02-28T15:06:32.242Z,9.30
2023-02-28T15:09:19.777Z,9.20
2023-02-28T15:12:05.513Z,9.40
2023-02-28T15:14:52.292Z,9.40
2023-02-28T15:17:38.585Z,9.40
2023-02-28T15:20:24.499Z,9.50
2023-02-28T15:23:10.452Z,9.60
2023-02-28T15:25:56.662Z,9.40
2023-02-28T15:28:42.772Z,9.60
2023-02-28T15:31:46.983Z,9.40
2023-02-28T15:34:43.987Z,9.20
2023-02-28T15:37:31.910Z,9.20
2023-02-28T15:40:28.577Z,9.10
2023-02-28T15:43:19.477Z,9.10
2023-02-28T15:46:08.682Z,9.10
2023-02-28T15:48:56.435Z,9.10
2023-02-28T15:51:42.967Z,9.10
2023-02-28T15:54:34.513Z,8.90
2023-02-28T15:57:25.400Z,8.60
2023-02-28T16:00:13.706Z,8.10
2023-02-28T16:03:01.242Z,8.90
2023-02-28T16:05:47.140Z,9.10
2023-02-28T16:08:33.168Z,9.20
2023-02-28T16:11:22.896Z,9.10
2023-02-28T16:14:13.880Z,9.10
2023-02-28T16:17:07.403Z,9.20
2023-02-28T16:19:53.055Z,9.20
2023-02-28T16:22:38.743Z,9.10
2023-02-28T16:25:30.583Z,9.00
2023-02-28T16:28:30.899Z,9.20
2023-02-28T16:31:17.779Z,9.30
2023-02-28T16:34:03.296Z,9.40
2023-02-28T16:36:49.391Z,9.40
2023-02-28T16:39:35.869Z,9.50
2023-02-28T16:42:26.821Z,9.60
2023-02-28T16:45:17.896Z,9.50
2023-02-28T16:48:04.542Z,9.40
2023-02-28T16:50:50.441Z,9.40
2023-02-28T16:53:36.525Z,9.10
2023-02-28T16:56:24.443Z,9.10
2023-02-28T16:59:10.663Z,9.00
2023-02-28T17:01:58.938Z,9.10
2023-02-28T17:04:45.190Z,8.30
2023-02-28T17:07:33.630Z,9.20
2023-02-28T17:10:24.028Z,9.20
2023-02-28T17:13:15.147Z,9.30
2023-02-28T17:16:01.381Z,9.30
2023-02-28T17:18:47.294Z,9.30
2023-02-28T17:21:34.111Z,9.40
2023-02-28T17:24:30.190Z,9.20
2023-02-28T17:27:18.326Z,9.10
2023-02-28T17:30:17.456Z,9.00
2023-02-28T17:33:03.473Z,8.90
2023-02-28T17:35:48.765Z,8.60
2023-02-28T17:38:34.490Z,8.70
2023-02-28T17:41:20.566Z,8.60
2023-02-28T17:44:06.410Z,8.50
2023-02-28T17:46:52.398Z,8.10
2023-02-28T17:49:38.236Z,8.30
2023-02-28T17:52:24.578Z,8.30
2023-02-28T17:55:11.014Z,8.20
2023-02-28T17:57:57.089Z,8.20
2023-02-28T18:00:42.763Z,8.10
2023-02-28T18:03:29.165Z,8.10
2023-02-28T18:06:20.545Z,8.10
2023-02-28T18:09:06.024Z,8.10
2023-02-28T18:11:53.449Z,8.10
2023-02-28T18:14:39.516Z,8.20
2023-02-28T18:17:26.311Z,8.30
2023-02-28T18:20:12.175Z,8.10
2023-02-28T18:22:57.800Z,9.10
2023-02-28T18:25:43.573Z,8.10
2023-02-28T18:28:29.145Z,8.10
2023-02-28T18:31:16.489Z,8.10
2023-02-28T18:34:02.822Z,8.20
2023-02-28T18:36:48.862Z,8.10
2023-02-28T18:39:34.568Z,8.00
2023-02-28T18:42:20.641Z,8.20
2023-02-28T18:45:06.707Z,8.20
2023-02-28T18:47:53.042Z,8.20
2023-02-28T18:50:39.258Z,8.10
2023-02-28T18:53:25.033Z,8.40
2023-02-28T18:56:13.382Z,8.40
2023-02-28T18:58:59.062Z,8.50
2023-02-28T19:01:46.939Z,8.50
2023-02-28T19:04:36.083Z,8.20
2023-02-28T19:07:22.007Z,8.40
2023-02-28T19:10:08.283Z,8.60
2023-02-28T19:12:54.255Z,8.70
2023-02-28T19:15:39.733Z,8.70
2023-02-28T19:18:26.133Z,8.50
2023-02-28T19:21:13.148Z,8.40
2023-02-28T19:23:58.684Z,8.50
2023-02-28T19:26:44.273Z,8.60
2023-02-28T19:29:30.312Z,8.60
2023-02-28T19:32:18.626Z,8.90
2023-02-28T19:35:04.890Z,8.90
2023-02-28T19:37:52.862Z,8.70
2023-02-28T19:40:39.388Z,8.60
2023-02-28T19:43:26.108Z,8.60
2023-02-28T19:46:12.835Z,8.50
2023-02-28T19:49:05.148Z,8.30
2023-02-28T19:51:50.930Z,8.30
2023-02-28T19:54:36.564Z,8.20
2023-02-28T19:57:22.998Z,7.50
2023-02-28T20:00:09.844Z,8.50
2023-02-28T20:03:08.352Z,7.90
2023-02-28T20:06:05.318Z,8.20
2023-02-28T20:08:54.340Z,8.50
2023-02-28T20:11:40.462Z,8.20
2023-02-28T20:14:26.918Z,7.60
2023-02-28T20:17:12.752Z,8.10
2023-02-28T20:19:59.349Z,8.40
2023-02-28T20:22:44.785Z,8.60
2023-02-28T20:25:30.756Z,8.30
2023-02-28T20:28:16.346Z,8.80
2023-02-28T20:31:02.667Z,8.80
2023-02-28T20:33:48.772Z,8.70
2023-02-28T20:36:34.453Z,8.50
2023-02-28T20:39:20.263Z,8.30
2023-02-28T20:42:06.260Z,8.30
2023-02-28T20:44:52.746Z,8.30
2023-02-28T20:47:38.609Z,8.20
2023-02-28T20:50:24.315Z,8.20
2023-02-28T20:53:10.127Z,8.10
2023-02-28T20:55:55.808Z,8.50
2023-02-28T20:58:41.858Z,8.20
2023-02-28T21:01:28.759Z,8.30
2023-02-28T21:04:14.621Z,8.50
2023-02-28T21:07:00.906Z,8.50
2023-02-28T21:09:46.371Z,8.60
2023-02-28T21:12:32.813Z,8.40
2023-02-28T21:15:18.454Z,8.30
2023-02-28T21:18:04.268Z,8.30
2023-02-28T21:20:50.241Z,8.10
2023-02-28T21:23:35.909Z,8.10
2023-02-28T21:26:23.154Z,8.00
2023-02-28T21:29:09.157Z,7.90
2023-02-28T21:31:54.871Z,8.00
2023-02-28T21:34:43.324Z,7.90
2023-02-28T21:37:29.118Z,8.00
2023-02-28T21:40:15.205Z,8.00
2023-02-28T21:43:01.186Z,8.00
2023-02-28T21:45:47.053Z,8.00
2023-02-28T21:48:32.728Z,8.00
2023-02-28T21:51:22.768Z,8.10
2023-02-28T21:54:11.153Z,8.20
2023-02-28T21:56:57.123Z,7.70
2023-02-28T21:59:43.138Z,8.40
2023-02-28T22:02:30.197Z,8.50
2023-02-28T22:05:15.755Z,8.50
2023-02-28T22:08:01.390Z,8.30
2023-02-28T22:10:46.976Z,8.30
2023-02-28T22:13:33.300Z,8.10
2023-02-28T22:16:19.902Z,7.90
2023-02-28T22:19:08.000Z,7.90
2023-02-28T22:21:54.358Z,7.80
2023-02-28T22:24:40.695Z,7.30
2023-02-28T22:27:26.868Z,7.70
2023-02-28T22:30:12.768Z,7.80
2023-02-28T22:32:58.247Z,7.80
2023-02-28T22:35:44.041Z,7.80
2023-02-28T22:38:29.999Z,7.80
2023-02-28T22:41:16.111Z,7.90
2023-02-28T22:44:02.890Z,7.90
2023-02-28T22:46:53.018Z,7.80
2023-02-28T22:49:39.090Z,7.10
2023-02-28T22:52:24.817Z,6.80
2023-02-28T22:55:10.710Z,7.20
2023-02-28T22:57:56.333Z,7.20
2023-02-28T23:00:42.555Z,7.30
2023-02-28T23:03:28.482Z,7.40
2023-02-28T23:06:20.496Z,7.50
2023-02-28T23:09:07.387Z,7.00
2023-02-28T23:11:53.372Z,6.20
2023-02-28T23:14:39.046Z,7.50
2023-02-28T23:17:24.732Z,7.60
2023-02-28T23:20:11.740Z,7.30
2023-02-28T23:22:57.418Z,7.60
2023-02-28T23:25:43.272Z,7.70
2023-02-28T23:28:31.462Z,7.80
2023-02-28T23:31:17.580Z,7.80
2023-02-28T23:34:03.605Z,7.80
2023-02-28T23:36:49.282Z,7.50
2023-02-28T23:39:35.279Z,7.30
2023-02-28T23:42:21.249Z,7.50
2023-02-28T23:45:07.041Z,7.70
2023-02-28T23:47:53.245Z,7.70
2023-02-28T23:50:38.875Z,7.70
2023-02-28T23:53:25.013Z,7.60
2023-02-28T23:56:11.533Z,7.50
2023-02-28T23:58:57.346Z,7.20
